Time;durP1;ratioP1;P1;durP2;ratioP2;P2;SDS_P1;SDS_P2;PMS_P1;PMS_P2;Temp;Humidity;BMP_temperature;BMP_pressure;BME280_temperature;BME280_humidity;BME280_pressure;Samples;Min_cycle;Max_cycle;Signal;HPM_P1;HPM_P2
2023/10/27 00:00:58;;;;;;;18.02;8.05;;;9.20;99.90;;;;;;5019137;28;20512;-67
2023/10/27 00:03:24;;;;;;;11.10;6.85;;;9.20;99.90;;;;;;5033585;28;20037;-67
2023/10/27 00:05:50;;;;;;;19.13;7.93;;;9.10;99.90;;;;;;5018494;28;20483;-67
2023/10/27 00:08:15;;;;;;;12.23;7.57;;;9.10;99.90;;;;;;5019644;28;20129;-67
2023/10/27 00:10:41;;;;;;;15.02;6.95;;;9.00;99.90;;;;;;5015542;28;20022;-67
2023/10/27 00:13:07;;;;;;;16.38;7.60;;;9.00;99.90;;;;;;5000150;28;20033;-67
2023/10/27 00:15:32;;;;;;;12.40;6.75;;;8.90;99.90;;;;;;5016203;28;20061;-68
2023/10/27 00:17:58;;;;;;;16.67;7.70;;;9.00;99.90;;;;;;5017498;28;20021;-66
2023/10/27 00:20:24;;;;;;;13.40;7.22;;;8.90;99.90;;;;;;5015313;28;20079;-67
2023/10/27 00:22:50;;;;;;;15.02;8.02;;;9.00;99.90;;;;;;5017039;28;20038;-67
2023/10/27 00:25:16;;;;;;;20.30;8.00;;;8.90;99.90;;;;;;5016286;28;20051;-67
2023/10/27 00:27:41;;;;;;;13.30;8.27;;;9.00;99.90;;;;;;5016177;28;20080;-67
2023/10/27 00:30:08;;;;;;;17.33;7.55;;;8.90;99.90;;;;;;5017380;28;20026;-67
2023/10/27 00:32:35;;;;;;;13.15;7.35;;;8.90;99.90;;;;;;5018171;28;20029;-67
2023/10/27 00:35:01;;;;;;;21.13;8.18;;;8.90;99.90;;;;;;5018913;28;20021;-67
2023/10/27 00:37:26;;;;;;;20.42;7.28;;;8.90;99.90;;;;;;5013601;28;20036;-67
2023/10/27 00:39:52;;;;;;;15.20;7.55;;;8.90;99.90;;;;;;5015643;28;20098;-67
2023/10/27 00:42:17;;;;;;;15.35;7.90;;;8.90;99.90;;;;;;5014746;28;20036;-67
2023/10/27 00:44:43;;;;;;;23.00;8.98;;;8.90;99.90;;;;;;5014181;28;20030;-67
2023/10/27 00:47:09;;;;;;;15.07;7.88;;;8.90;99.90;;;;;;5015013;28;20474;-67
2023/10/27 00:49:35;;;;;;;19.98;8.55;;;8.90;99.90;;;;;;5008358;28;20151;-67
2023/10/27 00:52:01;;;;;;;14.43;8.13;;;8.90;99.90;;;;;;5016616;28;20017;-67
2023/10/27 00:54:27;;;;;;;17.02;7.60;;;8.90;99.90;;;;;;5016514;28;20034;-67
2023/10/27 00:56:54;;;;;;;14.02;7.47;;;9.00;99.90;;;;;;5015617;28;20038;-67
2023/10/27 00:59:20;;;;;;;16.10;8.43;;;9.00;99.90;;;;;;5016240;28;20045;-67
2023/10/27 01:01:45;;;;;;;16.38;7.03;;;9.10;99.90;;;;;;5015977;28;20045;-67
2023/10/27 01:04:11;;;;;;;14.88;7.95;;;9.00;99.90;;;;;;5016386;28;20081;-67
2023/10/27 01:06:37;;;;;;;17.98;7.45;;;9.10;99.90;;;;;;5014564;28;20030;-68
2023/10/27 01:09:02;;;;;;;12.63;7.18;;;9.10;99.90;;;;;;5017863;28;20025;-67
2023/10/27 01:11:28;;;;;;;17.58;6.25;;;9.10;99.90;;;;;;5015270;28;20060;-67
2023/10/27 01:13:55;;;;;;;14.63;7.85;;;9.10;99.90;;;;;;4991654;28;20156;-67
2023/10/27 01:16:21;;;;;;;14.85;7.60;;;9.20;99.90;;;;;;5014719;28;20041;-67
2023/10/27 01:18:47;;;;;;;13.23;7.43;;;9.10;99.90;;;;;;5013073;28;20033;-67
2023/10/27 01:21:13;;;;;;;19.33;7.22;;;9.10;99.90;;;;;;5015015;28;20124;-67
2023/10/27 01:23:38;;;;;;;12.68;6.30;;;9.10;99.90;;;;;;5012549;28;20062;-67
2023/10/27 01:26:04;;;;;;;14.73;7.10;;;9.10;99.90;;;;;;5017880;28;20029;-66
2023/10/27 01:28:33;;;;;;;15.85;6.45;;;9.10;99.90;;;;;;5015734;28;20087;-67
2023/10/27 01:30:59;;;;;;;15.70;6.55;;;9.10;99.90;;;;;;5018892;28;20041;-67
2023/10/27 01:33:25;;;;;;;19.60;6.72;;;9.10;99.90;;;;;;5020317;28;20029;-67
2023/10/27 01:35:51;;;;;;;14.13;7.07;;;9.20;99.90;;;;;;5019162;28;20042;-67
2023/10/27 01:38:17;;;;;;;12.38;6.45;;;9.20;99.90;;;;;;5019643;28;20044;-67
2023/10/27 01:40:43;;;;;;;14.80;7.45;;;9.20;99.90;;;;;;5018985;28;20033;-67
2023/10/27 01:43:08;;;;;;;15.20;7.28;;;9.30;99.90;;;;;;5019191;28;20495;-67
2023/10/27 01:45:34;;;;;;;13.05;6.63;;;9.30;99.90;;;;;;5019963;28;20467;-67
2023/10/27 01:48:00;;;;;;;10.90;6.22;;;9.30;99.90;;;;;;5018081;28;20037;-67
2023/10/27 01:50:25;;;;;;;14.45;7.13;;;9.40;99.90;;;;;;5019823;28;20448;-67
2023/10/27 01:52:51;;;;;;;12.95;5.97;;;9.40;99.90;;;;;;5018261;28;20478;-67
2023/10/27 01:55:17;;;;;;;15.85;7.47;;;9.40;99.90;;;;;;5017817;28;20037;-67
2023/10/27 01:57:43;;;;;;;17.17;6.60;;;9.40;99.90;;;;;;5019857;28;20025;-67
2023/10/27 02:00:09;;;;;;;21.35;6.78;;;9.40;99.90;;;;;;5019431;28;20029;-67
2023/10/27 02:02:35;;;;;;;19.10;5.93;;;9.40;99.90;;;;;;5018263;28;20034;-67
2023/10/27 02:05:04;;;;;;;15.18;6.78;;;9.40;99.90;;;;;;5020283;28;20037;-67
2023/10/27 02:07:30;;;;;;;16.05;6.75;;;9.40;99.90;;;;;;5019544;28;20022;-67
2023/10/27 02:09:59;;;;;;;13.88;6.57;;;9.40;99.90;;;;;;5017862;28;20151;-67
2023/10/27 02:12:25;;;;;;;20.27;6.57;;;9.40;99.90;;;;;;4998093;28;20091;-67
2023/10/27 02:14:51;;;;;;;21.10;6.45;;;9.40;99.90;;;;;;5019441;28;20432;-67
2023/10/27 02:17:17;;;;;;;17.58;5.72;;;9.40;99.90;;;;;;5020430;28;20040;-67
2023/10/27 02:19:43;;;;;;;15.63;6.55;;;9.40;99.90;;;;;;5019801;28;20032;-67
2023/10/27 02:22:08;;;;;;;14.00;6.88;;;9.40;99.90;;;;;;5017238;28;20498;-67
2023/10/27 02:24:34;;;;;;;16.63;6.00;;;9.40;99.90;;;;;;5018507;28;20053;-67
2023/10/27 02:27:00;;;;;;;11.88;5.63;;;9.40;99.90;;;;;;5019269;28;20034;-66
2023/10/27 02:29:26;;;;;;;19.67;6.65;;;9.40;99.90;;;;;;5017485;28;20091;-67
2023/10/27 02:31:51;;;;;;;17.55;6.60;;;9.30;99.90;;;;;;5019675;28;20079;-67
2023/10/27 02:34:17;;;;;;;13.38;5.75;;;9.30;99.90;;;;;;5018137;28;20447;-67
2023/10/27 02:36:43;;;;;;;15.70;6.18;;;9.30;99.90;;;;;;5017471;28;20044;-67
2023/10/27 02:39:09;;;;;;;10.93;5.57;;;9.30;99.90;;;;;;5017069;28;20033;-66
2023/10/27 02:41:35;;;;;;;16.75;6.18;;;9.30;99.90;;;;;;5017303;28;20086;-67
2023/10/27 02:44:01;;;;;;;12.93;5.10;;;9.30;99.90;;;;;;5016875;28;20070;-67
2023/10/27 02:46:27;;;;;;;11.00;5.63;;;9.20;99.90;;;;;;5017191;28;20119;-67
2023/10/27 02:48:52;;;;;;;17.25;7.13;;;9.20;99.90;;;;;;5015484;28;20442;-67
2023/10/27 02:51:18;;;;;;;15.25;5.70;;;9.20;99.90;;;;;;5013788;28;20072;-67
2023/10/27 02:53:44;;;;;;;19.75;5.93;;;9.20;99.90;;;;;;5015304;28;20037;-67
2023/10/27 02:56:10;;;;;;;15.90;6.65;;;9.20;99.90;;;;;;5017916;28;20029;-67
2023/10/27 02:58:37;;;;;;;10.57;6.07;;;9.20;99.90;;;;;;5016964;28;20124;-67
2023/10/27 03:01:15;;;;;;;16.50;7.20;;;9.20;99.90;;;;;;5018576;28;20476;-67
2023/10/27 03:03:44;;;;;;;12.70;6.47;;;9.20;99.90;;;;;;5018096;28;20112;-66
2023/10/27 03:06:11;;;;;;;16.65;7.32;;;9.20;99.90;;;;;;5018764;28;20534;-67
2023/10/27 03:08:38;;;;;;;11.77;6.85;;;9.20;99.90;;;;;;5016287;28;20042;-67
2023/10/27 03:11:04;;;;;;;17.65;6.72;;;9.20;99.90;;;;;;5016888;28;20113;-67
2023/10/27 03:13:31;;;;;;;19.80;7.47;;;9.20;99.90;;;;;;5000159;28;20145;-67
2023/10/27 03:15:58;;;;;;;12.90;6.72;;;9.20;99.90;;;;;;5016934;28;20032;-67
2023/10/27 03:18:24;;;;;;;17.60;7.80;;;9.20;99.90;;;;;;5015926;28;20030;-67
2023/10/27 03:20:57;;;;;;;15.00;6.63;;;9.20;99.90;;;;;;5017322;28;20044;-66
2023/10/27 03:23:23;;;;;;;14.95;6.45;;;9.20;99.90;;;;;;5014382;28;20084;-67
2023/10/27 03:25:49;;;;;;;17.00;7.28;;;9.20;99.90;;;;;;5017900;28;20052;-67
2023/10/27 03:28:15;;;;;;;15.18;6.97;;;9.30;99.90;;;;;;5016645;28;20100;-67
2023/10/27 03:30:42;;;;;;;14.40;7.10;;;9.30;99.90;;;;;;5017709;28;20388;-67
2023/10/27 03:33:08;;;;;;;14.98;7.18;;;9.30;99.90;;;;;;5017575;28;20018;-66
2023/10/27 03:35:34;;;;;;;14.00;6.90;;;9.40;99.90;;;;;;5016888;28;20082;-67
2023/10/27 03:38:00;;;;;;;14.25;6.90;;;9.40;99.90;;;;;;5014129;28;20029;-67
2023/10/27 03:40:25;;;;;;;21.58;6.47;;;9.40;99.90;;;;;;5014353;28;20031;-67
2023/10/27 03:42:51;;;;;;;15.20;7.07;;;9.40;99.90;;;;;;5015525;28;20041;-67
2023/10/27 03:45:17;;;;;;;12.02;6.13;;;9.40;99.90;;;;;;5019016;28;20033;-67
2023/10/27 03:47:42;;;;;;;14.52;7.22;;;9.40;99.90;;;;;;5015140;28;20033;-67
2023/10/27 03:50:08;;;;;;;12.20;5.95;;;9.40;99.90;;;;;;5016337;28;20029;-67
2023/10/27 03:52:34;;;;;;;18.35;5.55;;;9.40;99.90;;;;;;5015170;28;20041;-67
2023/10/27 03:54:59;;;;;;;17.23;6.40;;;9.40;99.90;;;;;;5014737;28;20120;-67
2023/10/27 03:57:25;;;;;;;15.05;6.32;;;9.40;99.90;;;;;;5014455;28;20033;-66
2023/10/27 03:59:50;;;;;;;21.33;6.97;;;9.40;99.90;;;;;;5014217;28;20042;-66
2023/10/27 04:02:16;;;;;;;12.85;6.00;;;9.40;99.90;;;;;;5014998;28;20037;-66
2023/10/27 04:04:42;;;;;;;14.82;5.80;;;9.40;99.90;;;;;;5015744;28;20038;-67
2023/10/27 04:07:07;;;;;;;28.02;6.15;;;9.40;99.90;;;;;;5013934;28;20227;-67
2023/10/27 04:09:33;;;;;;;17.48;6.07;;;9.40;99.90;;;;;;5014309;28;20029;-67
2023/10/27 04:11:59;;;;;;;10.93;6.18;;;9.40;99.90;;;;;;5013743;28;20025;-67
2023/10/27 04:14:25;;;;;;;19.92;7.60;;;9.40;99.90;;;;;;4999672;28;21033;-67
2023/10/27 04:16:51;;;;;;;19.33;6.40;;;9.40;99.90;;;;;;5013514;28;20037;-67
2023/10/27 04:19:16;;;;;;;14.77;6.57;;;9.40;99.90;;;;;;5017310;28;20100;-67
2023/10/27 04:21:42;;;;;;;15.18;5.75;;;9.40;99.90;;;;;;5016355;28;20060;-67
2023/10/27 04:24:08;;;;;;;12.10;5.75;;;9.40;99.90;;;;;;5018650;28;20071;-67
2023/10/27 04:26:33;;;;;;;21.60;5.32;;;9.40;99.90;;;;;;5015049;28;20075;-67
2023/10/27 04:28:59;;;;;;;17.60;5.95;;;9.40;99.90;;;;;;5015791;28;20029;-67
2023/10/27 04:31:25;;;;;;;19.25;5.90;;;9.40;99.90;;;;;;5016485;28;20486;-68
2023/10/27 04:33:51;;;;;;;16.20;6.55;;;9.40;99.90;;;;;;5015924;28;20034;-67
2023/10/27 04:36:16;;;;;;;16.67;4.97;;;9.40;99.90;;;;;;5015210;28;20034;-67
2023/10/27 04:38:43;;;;;;;10.15;5.90;;;9.40;99.90;;;;;;5014385;28;20068;-67
2023/10/27 04:41:09;;;;;;;18.08;6.60;;;9.40;99.90;;;;;;5016259;28;20438;-68
2023/10/27 04:43:35;;;;;;;13.55;6.60;;;9.40;99.90;;;;;;5017281;28;20030;-67
2023/10/27 04:46:01;;;;;;;10.75;6.20;;;9.40;99.90;;;;;;5015624;28;20049;-67
2023/10/27 04:48:27;;;;;;;14.68;6.20;;;9.50;99.90;;;;;;5015244;28;20117;-67
2023/10/27 04:50:55;;;;;;;15.15;5.78;;;9.50;99.90;;;;;;5013607;28;20483;-67
2023/10/27 04:53:21;;;;;;;11.48;5.78;;;9.50;99.90;;;;;;5013768;28;20038;-67
2023/10/27 04:55:46;;;;;;;17.15;6.03;;;9.50;99.90;;;;;;5013200;28;20026;-67
2023/10/27 04:58:12;;;;;;;17.35;5.72;;;9.50;99.90;;;;;;5014355;28;20033;-67
2023/10/27 05:00:37;;;;;;;13.55;5.47;;;9.50;99.90;;;;;;5015494;28;20037;-67
2023/10/27 05:03:03;;;;;;;18.48;6.07;;;9.40;99.90;;;;;;5023224;28;20101;-67
2023/10/27 05:05:28;;;;;;;11.20;5.45;;;9.50;99.90;;;;;;5018430;28;20030;-67
2023/10/27 05:07:56;;;;;;;14.50;5.25;;;9.50;99.90;;;;;;5018523;28;20037;-67
2023/10/27 05:10:21;;;;;;;16.98;6.35;;;9.50;99.90;;;;;;5025998;28;20510;-67
2023/10/27 05:12:48;;;;;;;16.40;6.47;;;9.50;99.90;;;;;;5018255;28;20040;-67
2023/10/27 05:15:14;;;;;;;13.38;5.85;;;9.50;99.90;;;;;;4999462;28;20164;-67
2023/10/27 05:17:40;;;;;;;16.67;5.80;;;9.50;99.90;;;;;;5021282;28;20501;-67
2023/10/27 05:20:06;;;;;;;18.17;6.47;;;9.50;99.90;;;;;;5019105;28;20036;-67
2023/10/27 05:22:32;;;;;;;17.42;5.90;;;9.50;99.90;;;;;;5019138;28;20025;-67
2023/10/27 05:24:57;;;;;;;18.90;6.32;;;9.50;99.90;;;;;;5019535;28;20032;-67
2023/10/27 05:27:24;;;;;;;17.20;5.55;;;9.50;99.90;;;;;;5019852;28;20033;-67
2023/10/27 05:29:50;;;;;;;14.10;5.55;;;9.50;99.90;;;;;;5019256;28;20030;-67
2023/10/27 05:32:17;;;;;;;11.60;4.95;;;9.50;99.90;;;;;;5019687;28;20034;-67
2023/10/27 05:34:43;;;;;;;14.43;4.90;;;9.60;99.90;;;;;;5020220;28;20087;-67
2023/10/27 05:37:09;;;;;;;18.13;6.80;;;9.60;99.90;;;;;;5020940;28;20865;-67
2023/10/27 05:39:35;;;;;;;16.38;6.07;;;9.60;99.90;;;;;;5016965;28;20061;-67
2023/10/27 05:42:00;;;;;;;17.50;6.03;;;9.60;99.90;;;;;;5017822;28;20021;-67
2023/10/27 05:44:26;;;;;;;14.57;5.05;;;9.60;99.90;;;;;;5017473;28;20108;-67
2023/10/27 05:46:52;;;;;;;13.07;4.97;;;9.70;99.90;;;;;;5018796;28;20105;-67
2023/10/27 05:49:17;;;;;;;17.08;6.45;;;9.70;99.90;;;;;;5020392;28;20034;-66
2023/10/27 05:51:43;;;;;;;13.75;5.53;;;9.70;99.90;;;;;;5020316;28;20025;-67
2023/10/27 05:54:08;;;;;;;16.88;4.65;;;9.70;99.90;;;;;;5019588;28;20046;-67
2023/10/27 05:56:34;;;;;;;15.57;5.05;;;9.70;99.90;;;;;;5017879;28;21427;-68
2023/10/27 05:59:00;;;;;;;13.57;5.53;;;9.70;99.90;;;;;;5019480;28;20041;-70
2023/10/27 06:01:25;;;;;;;15.32;5.60;;;9.70;99.90;;;;;;5020020;28;20062;-68
2023/10/27 06:03:53;;;;;;;22.50;6.15;;;9.70;99.90;;;;;;5020215;28;20042;-68
2023/10/27 06:06:19;;;;;;;11.75;4.93;;;9.80;99.90;;;;;;5016720;28;20115;-68
2023/10/27 06:08:44;;;;;;;13.07;4.22;;;9.80;99.90;;;;;;5018572;28;20705;-68
2023/10/27 06:11:11;;;;;;;12.57;4.35;;;9.80;99.90;;;;;;5017890;28;20034;-68
2023/10/27 06:13:37;;;;;;;19.13;4.93;;;9.80;99.90;;;;;;5019202;28;20032;-66
2023/10/27 06:16:03;;;;;;;12.02;4.97;;;9.70;99.90;;;;;;4997178;28;20655;-68
2023/10/27 06:18:29;;;;;;;15.27;5.80;;;9.80;99.90;;;;;;5021568;28;20037;-69
2023/10/27 06:20:55;;;;;;;13.13;4.82;;;9.80;99.90;;;;;;5019342;28;20033;-68
2023/10/27 06:23:20;;;;;;;13.30;6.22;;;9.70;99.90;;;;;;5019106;28;20116;-69
2023/10/27 06:25:46;;;;;;;24.88;6.95;;;9.80;99.90;;;;;;5018128;28;20029;-68
2023/10/27 06:28:12;;;;;;;17.23;5.38;;;9.80;99.90;;;;;;5020380;28;20024;-67
2023/10/27 06:30:37;;;;;;;11.00;4.63;;;9.80;99.90;;;;;;5017318;28;20022;-68
2023/10/27 06:33:03;;;;;;;23.65;5.03;;;9.80;99.90;;;;;;5017979;28;20075;-67
2023/10/27 06:35:29;;;;;;;14.52;4.72;;;9.80;99.90;;;;;;5017159;28;20044;-67
2023/10/27 06:37:55;;;;;;;13.60;3.80;;;9.80;99.90;;;;;;5017346;28;20700;-67
2023/10/27 06:40:22;;;;;;;14.13;3.83;;;9.80;99.90;;;;;;5019859;28;20057;-68
2023/10/27 06:42:48;;;;;;;9.15;3.22;;;9.80;99.90;;;;;;5018474;28;20463;-68
2023/10/27 06:45:14;;;;;;;9.05;4.43;;;9.80;99.90;;;;;;5019645;28;20084;-68
2023/10/27 06:47:40;;;;;;;8.45;3.30;;;9.80;99.90;;;;;;5018359;28;20628;-68
2023/10/27 06:50:06;;;;;;;12.48;4.50;;;9.90;99.90;;;;;;5018009;28;20398;-68
2023/10/27 06:52:34;;;;;;;13.75;4.38;;;9.90;99.90;;;;;;5018005;28;20119;-68
2023/10/27 06:55:00;;;;;;;19.35;7.15;;;9.90;99.90;;;;;;5019066;28;20204;-67
2023/10/27 06:57:26;;;;;;;25.80;9.07;;;9.90;99.90;;;;;;5016900;28;20062;-66
2023/10/27 06:59:55;;;;;;;37.80;10.77;;;9.90;99.90;;;;;;5014792;28;20507;-66
2023/10/27 07:02:20;;;;;;;19.95;8.60;;;9.90;99.90;;;;;;5020859;28;20029;-66
2023/10/27 07:04:46;;;;;;;26.90;9.10;;;9.90;99.90;;;;;;5018492;28;20041;-67
2023/10/27 07:07:11;;;;;;;21.77;8.40;;;9.90;99.90;;;;;;5017249;28;20033;-67
2023/10/27 07:09:38;;;;;;;10.57;2.67;;;9.90;99.90;;;;;;5017028;28;20376;-66
2023/10/27 07:12:04;;;;;;;9.95;3.75;;;10.00;99.90;;;;;;5016234;28;20033;-66
2023/10/27 07:14:30;;;;;;;15.63;4.07;;;10.00;99.90;;;;;;4996919;28;20040;-67
2023/10/27 07:16:56;;;;;;;12.90;3.15;;;10.10;99.90;;;;;;5017323;28;20033;-68
2023/10/27 07:19:22;;;;;;;14.40;2.90;;;10.10;99.90;;;;;;5016364;28;20022;-68
2023/10/27 07:21:48;;;;;;;6.22;3.20;;;10.20;99.90;;;;;;5018518;28;20072;-66
2023/10/27 07:24:14;;;;;;;4.65;2.53;;;10.20;99.90;;;;;;5016972;28;20048;-67
2023/10/27 07:26:40;;;;;;;7.82;2.80;;;10.30;99.90;;;;;;5016524;28;20033;-67
2023/10/27 07:29:05;;;;;;;4.97;2.00;;;10.20;99.90;;;;;;5034488;28;20029;-68
2023/10/27 07:31:31;;;;;;;5.55;2.60;;;10.30;99.90;;;;;;5019827;28;20029;-68
2023/10/27 07:33:57;;;;;;;6.65;2.75;;;10.30;99.90;;;;;;5018554;28;20084;-68
2023/10/27 07:36:23;;;;;;;8.60;2.53;;;10.30;99.90;;;;;;5018788;28;20386;-68
2023/10/27 07:38:49;;;;;;;14.10;3.80;;;10.40;99.90;;;;;;5015769;28;20022;-68
2023/10/27 07:41:15;;;;;;;9.35;2.75;;;10.40;99.90;;;;;;5014881;28;20060;-68
2023/10/27 07:43:41;;;;;;;4.82;2.35;;;10.40;99.90;;;;;;5015201;28;20041;-68
2023/10/27 07:46:06;;;;;;;4.75;2.30;;;10.50;99.90;;;;;;5015936;28;20034;-67
2023/10/27 07:48:32;;;;;;;4.97;2.05;;;10.50;99.90;;;;;;5020000;28;20034;-68
2023/10/27 07:50:58;;;;;;;5.25;2.13;;;10.50;99.90;;;;;;5016103;28;20045;-67
2023/10/27 07:53:25;;;;;;;6.47;2.53;;;10.60;99.90;;;;;;5015481;28;20450;-67
2023/10/27 07:55:50;;;;;;;9.10;2.40;;;10.60;99.90;;;;;;5015611;28;20037;-67
2023/10/27 07:58:16;;;;;;;5.88;2.60;;;10.60;99.90;;;;;;5016736;28;20029;-68
2023/10/27 08:00:42;;;;;;;4.35;2.85;;;10.60;99.90;;;;;;5016206;28;20022;-67
2023/10/27 08:03:07;;;;;;;7.47;2.08;;;10.60;99.90;;;;;;5019231;28;20507;-67
2023/10/27 08:05:33;;;;;;;5.18;2.85;;;10.60;99.90;;;;;;5018033;28;20450;-67
2023/10/27 08:07:59;;;;;;;7.28;2.42;;;10.60;99.90;;;;;;5015912;28;20026;-67
2023/10/27 08:10:24;;;;;;;9.50;2.25;;;10.60;99.90;;;;;;5015077;28;20024;-67
2023/10/27 08:12:50;;;;;;;6.00;2.47;;;10.70;99.90;;;;;;5013780;28;21130;-67
2023/10/27 08:15:16;;;;;;;8.80;2.10;;;10.70;99.90;;;;;;4995431;28;20030;-67
2023/10/27 08:17:42;;;;;;;7.40;1.80;;;10.70;99.90;;;;;;5015323;28;20040;-67
2023/10/27 08:20:08;;;;;;;7.45;2.00;;;10.60;99.90;;;;;;5014998;28;20088;-67
2023/10/27 08:22:34;;;;;;;3.88;1.80;;;10.60;99.90;;;;;;5017744;28;20034;-67
2023/10/27 08:25:00;;;;;;;8.90;1.85;;;10.60;99.90;;;;;;5017545;28;20033;-67
2023/10/27 08:27:26;;;;;;;5.15;1.65;;;10.50;99.90;;;;;;5015574;28;20029;-67
2023/10/27 08:29:56;;;;;;;2.53;1.90;;;10.60;99.90;;;;;;5014404;28;20026;-67
2023/10/27 08:32:22;;;;;;;7.32;1.80;;;10.60;99.90;;;;;;5016359;28;20109;-67
2023/10/27 08:34:48;;;;;;;1.80;1.27;;;10.60;99.90;;;;;;5016069;28;20138;-67
2023/10/27 08:37:16;;;;;;;3.83;1.98;;;10.70;99.90;;;;;;5015539;28;20318;-67
2023/10/27 08:39:42;;;;;;;3.95;1.45;;;10.70;99.90;;;;;;5014640;28;20029;-67
2023/10/27 08:42:08;;;;;;;2.22;1.50;;;10.70;99.90;;;;;;5015273;28;20371;-67
2023/10/27 08:44:34;;;;;;;2.08;1.50;;;10.70;99.90;;;;;;5017648;28;20030;-67
2023/10/27 08:47:03;;;;;;;4.22;1.50;;;10.80;99.90;;;;;;5016692;28;20040;-68
2023/10/27 08:49:28;;;;;;;6.97;1.90;;;10.80;99.90;;;;;;5012665;28;20131;-68
2023/10/27 08:51:56;;;;;;;7.45;1.92;;;10.80;99.90;;;;;;5015204;28;20014;-68
2023/10/27 08:54:22;;;;;;;4.53;1.77;;;10.80;99.90;;;;;;5017474;28;20121;-68
2023/10/27 08:56:47;;;;;;;3.08;1.50;;;10.90;99.90;;;;;;5014503;28;20117;-68
2023/10/27 08:59:14;;;;;;;4.40;1.70;;;11.00;99.90;;;;;;5015496;28;20052;-68
2023/10/27 09:01:41;;;;;;;3.05;1.77;;;11.00;99.90;;;;;;5015321;28;20029;-68
2023/10/27 09:04:11;;;;;;;3.88;1.95;;;11.00;99.90;;;;;;5016566;28;20051;-68
2023/10/27 09:06:38;;;;;;;4.25;1.55;;;11.00;99.90;;;;;;5017261;28;20398;-68
2023/10/27 09:09:09;;;;;;;4.55;2.75;;;11.00;99.90;;;;;;5015046;28;20117;-68
2023/10/27 09:11:47;;;;;;;5.30;2.03;;;11.10;99.90;;;;;;5016683;28;20046;-68
2023/10/27 09:14:23;;;;;;;6.43;3.47;;;11.10;99.90;;;;;;5015936;28;20045;-68
2023/10/27 09:16:50;;;;;;;6.03;4.00;;;11.10;99.90;;;;;;4999175;28;20046;-68
2023/10/27 09:19:26;;;;;;;12.60;7.13;;;11.10;99.90;;;;;;5030649;28;20029;-68
2023/10/27 09:21:53;;;;;;;13.85;6.10;;;11.20;99.90;;;;;;5015107;28;20034;-69
2023/10/27 09:24:27;;;;;;;4.85;2.83;;;11.30;99.90;;;;;;5014383;28;20034;-68
2023/10/27 09:26:55;;;;;;;7.78;4.80;;;11.40;99.90;;;;;;5015190;28;20030;-68
2023/10/27 09:29:21;;;;;;;4.82;2.10;;;11.60;99.90;;;;;;5015546;28;20499;-68
2023/10/27 09:31:47;;;;;;;13.93;6.65;;;11.60;99.90;;;;;;5015864;28;20034;-68
2023/10/27 09:34:17;;;;;;;4.25;2.40;;;11.60;99.90;;;;;;5015634;28;20087;-68
2023/10/27 09:36:45;;;;;;;70.20;30.98;;;11.60;99.90;;;;;;5016255;28;20820;-68
2023/10/27 09:39:16;;;;;;;22.10;11.02;;;11.70;99.90;;;;;;5015992;28;20037;-68
2023/10/27 09:41:44;;;;;;;4.15;2.75;;;11.70;99.90;;;;;;5017109;28;20741;-68
2023/10/27 09:44:13;;;;;;;8.27;4.60;;;11.70;99.90;;;;;;5015698;28;20065;-68
2023/10/27 09:46:42;;;;;;;3.58;2.60;;;11.60;99.90;;;;;;5018294;28;20034;-68
2023/10/27 09:49:11;;;;;;;2.70;2.15;;;11.50;99.90;;;;;;5017956;28;20057;-68
2023/10/27 09:51:40;;;;;;;2.97;1.75;;;11.50;99.90;;;;;;5019263;28;20024;-68
2023/10/27 09:54:06;;;;;;;5.18;2.00;;;11.50;99.90;;;;;;5017891;28;20030;-68
2023/10/27 09:56:32;;;;;;;13.05;6.72;;;11.50;99.90;;;;;;5018020;28;20048;-67
2023/10/27 09:59:00;;;;;;;4.28;2.85;;;11.50;99.90;;;;;;5016278;28;20038;-68
2023/10/27 10:01:26;;;;;;;11.95;5.20;;;11.50;99.90;;;;;;5017716;28;20025;-67
2023/10/27 10:03:52;;;;;;;3.83;2.63;;;11.50;99.90;;;;;;5015302;28;20032;-67
2023/10/27 10:06:23;;;;;;;5.57;2.22;;;11.50;99.90;;;;;;5015374;28;20018;-68
2023/10/27 10:09:10;;;;;;;4.40;1.90;;;11.50;99.90;;;;;;5018857;28;20034;-68
2023/10/27 10:11:48;;;;;;;4.85;2.28;;;11.60;99.90;;;;;;5018335;28;20071;-68
2023/10/27 10:14:39;;;;;;;7.75;2.20;;;11.60;99.90;;;;;;5017990;28;20053;-68
2023/10/27 10:17:05;;;;;;;3.10;1.33;;;11.60;99.90;;;;;;4999244;28;20053;-68
2023/10/27 10:19:49;;;;;;;1.80;1.40;;;11.50;99.90;;;;;;5015575;28;20450;-68
2023/10/27 10:22:37;;;;;;;16.52;8.20;;;11.50;99.90;;;;;;5019059;28;20028;-68
2023/10/27 10:25:14;;;;;;;7.25;3.97;;;11.50;99.90;;;;;;5020734;28;20037;-68
2023/10/27 10:28:08;;;;;;;8.52;3.97;;;11.50;99.90;;;;;;5018290;28;20117;-68
2023/10/27 10:30:38;;;;;;;18.80;6.05;;;11.60;99.90;;;;;;5019785;28;21265;-68
2023/10/27 10:33:19;;;;;;;4.25;2.20;;;11.70;99.90;;;;;;5016415;28;20084;-68
2023/10/27 10:35:46;;;;;;;3.30;2.60;;;11.80;99.90;;;;;;5016678;28;20025;-68
2023/10/27 10:38:26;;;;;;;4.22;2.63;;;11.90;99.90;;;;;;5018073;28;20029;-68
2023/10/27 10:40:58;;;;;;;8.23;3.28;;;12.20;99.90;;;;;;5020178;28;20486;-68
2023/10/27 10:43:33;;;;;;;6.35;2.38;;;12.40;99.90;;;;;;5017649;28;20026;-68
2023/10/27 10:46:03;;;;;;;3.10;1.60;;;12.60;99.90;;;;;;5018369;28;20103;-69
2023/10/27 10:48:33;;;;;;;2.85;2.10;;;12.90;99.90;;;;;;5017309;28;20021;-68
2023/10/27 10:51:14;;;;;;;3.30;1.70;;;13.10;99.90;;;;;;5018199;28;20113;-68
2023/10/27 10:53:40;;;;;;;7.82;2.33;;;13.20;99.90;;;;;;5018521;28;20029;-68
2023/10/27 10:56:06;;;;;;;8.30;1.70;;;13.10;99.90;;;;;;5017559;28;20530;-68
2023/10/27 10:58:34;;;;;;;1.77;1.40;;;13.10;99.90;;;;;;5016715;28;20029;-68
2023/10/27 11:01:00;;;;;;;4.57;1.70;;;13.10;99.90;;;;;;5016668;28;20024;-69
2023/10/27 11:03:31;;;;;;;4.40;1.52;;;13.00;99.90;;;;;;5018796;28;20018;-68
2023/10/27 11:05:59;;;;;;;2.97;2.20;;;12.90;99.90;;;;;;5016512;28;20501;-68
2023/10/27 11:08:29;;;;;;;5.57;1.30;;;12.70;99.90;;;;;;5018230;28;20118;-68
2023/10/27 11:11:06;;;;;;;2.63;1.88;;;12.70;99.90;;;;;;5018223;28;20022;-68
2023/10/27 11:13:38;;;;;;;1.55;1.35;;;12.70;99.90;;;;;;5017322;28;20021;-68
2023/10/27 11:16:18;;;;;;;2.47;1.92;;;12.80;99.90;;;;;;4998216;28;20092;-68
2023/10/27 11:18:46;;;;;;;2.70;1.63;;;12.90;99.90;;;;;;5029945;28;20949;-68
2023/10/27 11:21:24;;;;;;;3.00;1.65;;;13.10;99.90;;;;;;5017398;28;20026;-68
2023/10/27 11:23:51;;;;;;;6.55;3.30;;;13.20;99.90;;;;;;5017180;28;20034;-68
2023/10/27 11:26:20;;;;;;;10.43;2.83;;;13.30;99.90;;;;;;5015660;28;20515;-68
2023/10/27 11:28:46;;;;;;;5.45;2.03;;;13.30;99.90;;;;;;5016964;28;20038;-68
2023/10/27 11:31:22;;;;;;;3.03;1.67;;;13.50;99.90;;;;;;5017569;28;20057;-68
2023/10/27 11:33:57;;;;;;;3.47;1.90;;;13.70;99.90;;;;;;5015081;28;20013;-68
2023/10/27 11:36:23;;;;;;;4.93;1.77;;;13.90;99.90;;;;;;5014118;28;20060;-68
2023/10/27 11:38:49;;;;;;;3.10;1.50;;;13.90;99.90;;;;;;5015599;28;20057;-68
2023/10/27 11:41:14;;;;;;;4.35;1.83;;;13.90;99.90;;;;;;5017658;28;20062;-68
2023/10/27 11:43:40;;;;;;;4.35;2.55;;;13.90;99.90;;;;;;5017528;28;20060;-68
2023/10/27 11:46:18;;;;;;;4.25;2.95;;;13.80;99.90;;;;;;5032897;28;20034;-68
2023/10/27 11:48:44;;;;;;;5.80;2.42;;;13.80;99.90;;;;;;5017053;28;20108;-68
2023/10/27 11:51:11;;;;;;;6.38;3.10;;;13.80;99.90;;;;;;5017262;28;20026;-68
2023/10/27 11:53:44;;;;;;;4.88;2.00;;;13.70;99.90;;;;;;5013941;28;20091;-68
2023/10/27 11:56:13;;;;;;;12.57;2.90;;;13.50;99.90;;;;;;5017483;28;20049;-68
2023/10/27 11:58:39;;;;;;;8.65;3.70;;;13.40;99.90;;;;;;5018573;28;20033;-68
2023/10/27 12:01:05;;;;;;;6.70;2.47;;;13.40;99.90;;;;;;5021417;28;20025;-68
2023/10/27 12:03:30;;;;;;;6.55;3.75;;;13.40;99.90;;;;;;5028335;28;20034;-68
2023/10/27 12:05:56;;;;;;;8.10;2.75;;;13.20;99.90;;;;;;5018055;28;20415;-68
2023/10/27 12:08:22;;;;;;;5.40;2.30;;;13.10;99.90;;;;;;5016364;28;20036;-68
2023/10/27 12:10:52;;;;;;;5.43;2.60;;;13.10;99.90;;;;;;5015741;28;21268;-68
2023/10/27 12:13:20;;;;;;;9.52;4.10;;;12.90;99.90;;;;;;5018307;28;20049;-68
2023/10/27 12:15:47;;;;;;;9.82;3.28;;;12.80;99.90;;;;;;5001156;28;20045;-68
2023/10/27 12:18:12;;;;;;;12.27;3.45;;;12.70;99.90;;;;;;5015196;28;20036;-68
2023/10/27 12:20:38;;;;;;;9.93;3.30;;;12.60;99.90;;;;;;5017605;28;20030;-68
2023/10/27 12:23:09;;;;;;;15.27;4.55;;;12.60;99.90;;;;;;5015873;28;20112;-68
2023/10/27 12:25:35;;;;;;;13.88;5.45;;;12.60;99.90;;;;;;5017679;28;20755;-68
2023/10/27 12:28:01;;;;;;;17.20;5.07;;;12.60;99.90;;;;;;5014376;28;20380;-68
2023/10/27 12:30:27;;;;;;;8.15;3.75;;;12.70;99.90;;;;;;5016140;28;20025;-68
2023/10/27 12:32:53;;;;;;;8.63;3.88;;;12.70;99.90;;;;;;5016346;28;20033;-68
2023/10/27 12:35:21;;;;;;;4.97;2.25;;;12.70;99.90;;;;;;5016976;28;20037;-68
2023/10/27 12:37:48;;;;;;;13.00;3.13;;;12.80;99.90;;;;;;5015298;28;20108;-68
2023/10/27 12:40:13;;;;;;;8.57;2.63;;;12.90;99.90;;;;;;5016346;28;20610;-68
2023/10/27 12:42:39;;;;;;;7.75;2.75;;;12.90;99.90;;;;;;5015189;28;20033;-68
2023/10/27 12:45:05;;;;;;;7.53;2.65;;;12.90;99.90;;;;;;5017040;28;20091;-68